KGFL/GFL METAR and TAF weather

Enter ICAO airport designator
Station Type Date Time Source
KGFL METAR 2021/03/04 20:53 UTC NOAA

KGFL 042053Z AUTO 33013G20KT 10SM CLR M01/M18 A2979 RMK AO2 SLP096 T10061183 56007


Station Type Date Time Source
KGFL Decoded METAR 2021/03/04 20:53 UTC NOAA

FLOYD BENNETT MEMORIAL AIRPORT , NY, United States (KGFL) 43-20N 073-37W 103M
Mar 04, 2021 - 03:53 PM EST / 2021.03.04 2053 UTC
Wind: from the NNW (330 degrees) at 15 MPH (13 KT) gusting to 23 MPH (20 KT):0
Visibility: 10 mile(s):0
Sky conditions: clear
Temperature: 30.9 F (-0.6 C)
Windchill: 19 F (-7 C):1
Dew Point: -0.9 F (-18.3 C)
Relative Humidity: 24%
Pressure (altimeter): 29.79 in. Hg (1008 hPa)
Pressure tendency: 0.02 inches (0.7 hPa) lower than three hours ago
ob: KGFL 042053Z AUTO 33013G20KT 10SM CLR M01/M18 A2979 RMK AO2 SLP096 T10061183 56007
cycle: 21

Station Type Date Time Source
KGFL TAF 2021/03/04 18:34 UTC NOAA

TAF KGFL 041731Z 0418/0518 33014G24KT P6SM FEW050
FM050200 32012KT P6SM BKN050
FM051500 30012G20KT P6SM SCT060

Example: see airport list